sensor_id;sensor_type;location;lat;lon;timestamp;P1;durP1;ratioP1;P2;durP2;ratioP2
20415;SDS011;10367;52.202;5.996;2023-07-31T00:01:34;18.03;;;16.83;;
20415;SDS011;10367;52.202;5.996;2023-07-31T00:04:03;17.53;;;16.33;;
20415;SDS011;10367;52.202;5.996;2023-07-31T00:06:33;19.47;;;18.07;;
20415;SDS011;10367;52.202;5.996;2023-07-31T00:09:02;16.50;;;15.50;;
20415;SDS011;10367;52.202;5.996;2023-07-31T00:11:31;17.90;;;16.63;;
20415;SDS011;10367;52.202;5.996;2023-07-31T00:14:00;17.63;;;16.43;;
20415;SDS011;10367;52.202;5.996;2023-07-31T00:16:28;17.57;;;16.37;;
20415;SDS011;10367;52.202;5.996;2023-07-31T00:18:57;17.50;;;16.40;;
20415;SDS011;10367;52.202;5.996;2023-07-31T00:21:26;17.27;;;16.07;;
20415;SDS011;10367;52.202;5.996;2023-07-31T00:27:02;17.17;;;16.07;;
20415;SDS011;10367;52.202;5.996;2023-07-31T00:29:31;18.17;;;16.73;;
20415;SDS011;10367;52.202;5.996;2023-07-31T00:32:00;17.57;;;16.33;;
20415;SDS011;10367;52.202;5.996;2023-07-31T00:34:29;18.17;;;16.77;;
20415;SDS011;10367;52.202;5.996;2023-07-31T00:37:00;17.63;;;16.43;;
20415;SDS011;10367;52.202;5.996;2023-07-31T00:39:29;16.83;;;15.73;;
20415;SDS011;10367;52.202;5.996;2023-07-31T00:41:58;16.00;;;14.90;;
20415;SDS011;10367;52.202;5.996;2023-07-31T00:44:28;16.47;;;15.33;;
20415;SDS011;10367;52.202;5.996;2023-07-31T00:46:57;18.20;;;17.00;;
20415;SDS011;10367;52.202;5.996;2023-07-31T00:49:26;15.97;;;15.00;;
20415;SDS011;10367;52.202;5.996;2023-07-31T00:51:55;16.47;;;15.27;;
20415;SDS011;10367;52.202;5.996;2023-07-31T00:54:25;17.33;;;16.17;;
20415;SDS011;10367;52.202;5.996;2023-07-31T00:56:54;18.97;;;17.43;;
20415;SDS011;10367;52.202;5.996;2023-07-31T00:59:23;17.10;;;16.00;;
20415;SDS011;10367;52.202;5.996;2023-07-31T01:01:55;20.07;;;18.30;;
20415;SDS011;10367;52.202;5.996;2023-07-31T01:04:24;17.43;;;16.20;;
20415;SDS011;10367;52.202;5.996;2023-07-31T01:06:55;18.47;;;17.07;;
20415;SDS011;10367;52.202;5.996;2023-07-31T01:09:34;17.03;;;15.83;;
20415;SDS011;10367;52.202;5.996;2023-07-31T01:12:09;18.13;;;16.93;;
20415;SDS011;10367;52.202;5.996;2023-07-31T01:14:50;19.03;;;17.57;;
20415;SDS011;10367;52.202;5.996;2023-07-31T01:17:22;17.00;;;16.00;;
20415;SDS011;10367;52.202;5.996;2023-07-31T01:19:50;18.33;;;17.03;;
20415;SDS011;10367;52.202;5.996;2023-07-31T01:22:26;16.43;;;15.33;;
20415;SDS011;10367;52.202;5.996;2023-07-31T01:25:15;17.80;;;16.43;;
20415;SDS011;10367;52.202;5.996;2023-07-31T01:27:59;18.40;;;16.87;;
20415;SDS011;10367;52.202;5.996;2023-07-31T01:30:32;20.33;;;18.43;;
20415;SDS011;10367;52.202;5.996;2023-07-31T01:33:04;19.83;;;18.13;;
20415;SDS011;10367;52.202;5.996;2023-07-31T01:35:34;22.33;;;20.17;;
20415;SDS011;10367;52.202;5.996;2023-07-31T01:38:04;19.77;;;18.07;;
20415;SDS011;10367;52.202;5.996;2023-07-31T01:40:33;20.03;;;18.33;;
20415;SDS011;10367;52.202;5.996;2023-07-31T01:43:06;24.30;;;20.00;;
20415;SDS011;10367;52.202;5.996;2023-07-31T01:45:35;21.43;;;18.97;;
20415;SDS011;10367;52.202;5.996;2023-07-31T01:48:04;21.13;;;18.93;;
20415;SDS011;10367;52.202;5.996;2023-07-31T01:50:33;25.83;;;19.33;;
20415;SDS011;10367;52.202;5.996;2023-07-31T01:53:04;21.80;;;19.63;;
20415;SDS011;10367;52.202;5.996;2023-07-31T01:55:33;19.60;;;17.83;;
20415;SDS011;10367;52.202;5.996;2023-07-31T01:58:03;21.13;;;19.17;;
20415;SDS011;10367;52.202;5.996;2023-07-31T02:00:34;19.33;;;17.73;;
20415;SDS011;10367;52.202;5.996;2023-07-31T02:03:02;20.03;;;18.33;;
20415;SDS011;10367;52.202;5.996;2023-07-31T02:05:31;19.43;;;17.83;;
20415;SDS011;10367;52.202;5.996;2023-07-31T02:08:00;19.00;;;17.50;;
20415;SDS011;10367;52.202;5.996;2023-07-31T02:10:32;19.77;;;18.23;;
20415;SDS011;10367;52.202;5.996;2023-07-31T02:13:01;19.90;;;18.40;;
20415;SDS011;10367;52.202;5.996;2023-07-31T02:15:32;19.97;;;18.27;;
20415;SDS011;10367;52.202;5.996;2023-07-31T02:18:01;19.27;;;17.70;;
20415;SDS011;10367;52.202;5.996;2023-07-31T02:20:30;19.63;;;17.97;;
20415;SDS011;10367;52.202;5.996;2023-07-31T02:23:02;18.97;;;17.43;;
20415;SDS011;10367;52.202;5.996;2023-07-31T02:25:31;22.07;;;19.97;;
20415;SDS011;10367;52.202;5.996;2023-07-31T02:28:00;18.80;;;17.37;;
20415;SDS011;10367;52.202;5.996;2023-07-31T02:30:33;21.27;;;19.37;;
20415;SDS011;10367;52.202;5.996;2023-07-31T02:33:04;18.73;;;17.37;;
20415;SDS011;10367;52.202;5.996;2023-07-31T02:35:33;20.80;;;18.97;;
20415;SDS011;10367;52.202;5.996;2023-07-31T02:38:02;20.77;;;18.97;;
20415;SDS011;10367;52.202;5.996;2023-07-31T02:40:34;21.40;;;19.47;;
20415;SDS011;10367;52.202;5.996;2023-07-31T02:43:02;20.43;;;18.57;;
20415;SDS011;10367;52.202;5.996;2023-07-31T02:45:31;19.93;;;18.33;;
20415;SDS011;10367;52.202;5.996;2023-07-31T02:48:02;18.63;;;17.00;;
20415;SDS011;10367;52.202;5.996;2023-07-31T02:50:31;20.80;;;18.83;;
20415;SDS011;10367;52.202;5.996;2023-07-31T02:53:01;22.00;;;19.77;;
20415;SDS011;10367;52.202;5.996;2023-07-31T02:55:30;21.40;;;19.53;;
20415;SDS011;10367;52.202;5.996;2023-07-31T02:57:59;20.60;;;18.50;;
20415;SDS011;10367;52.202;5.996;2023-07-31T03:00:27;21.63;;;19.63;;
20415;SDS011;10367;52.202;5.996;2023-07-31T03:02:57;27.63;;;20.87;;
20415;SDS011;10367;52.202;5.996;2023-07-31T03:05:26;22.50;;;20.30;;
20415;SDS011;10367;52.202;5.996;2023-07-31T03:07:55;25.90;;;21.50;;
20415;SDS011;10367;52.202;5.996;2023-07-31T03:10:24;27.93;;;21.83;;
20415;SDS011;10367;52.202;5.996;2023-07-31T03:12:55;36.23;;;22.27;;
20415;SDS011;10367;52.202;5.996;2023-07-31T03:15:24;31.00;;;21.43;;
20415;SDS011;10367;52.202;5.996;2023-07-31T03:17:53;25.80;;;20.60;;
20415;SDS011;10367;52.202;5.996;2023-07-31T03:20:24;23.43;;;20.97;;
20415;SDS011;10367;52.202;5.996;2023-07-31T03:22:53;29.23;;;22.67;;
20415;SDS011;10367;52.202;5.996;2023-07-31T03:25:22;25.33;;;20.03;;
20415;SDS011;10367;52.202;5.996;2023-07-31T03:27:50;30.17;;;22.17;;
20415;SDS011;10367;52.202;5.996;2023-07-31T03:30:19;22.83;;;20.40;;
20415;SDS011;10367;52.202;5.996;2023-07-31T03:32:48;27.03;;;20.17;;
20415;SDS011;10367;52.202;5.996;2023-07-31T03:35:17;23.67;;;21.13;;
20415;SDS011;10367;52.202;5.996;2023-07-31T03:37:47;32.60;;;23.13;;
20415;SDS011;10367;52.202;5.996;2023-07-31T03:40:17;29.17;;;20.83;;
20415;SDS011;10367;52.202;5.996;2023-07-31T03:42:47;35.67;;;23.13;;
20415;SDS011;10367;52.202;5.996;2023-07-31T03:45:18;29.17;;;20.40;;
20415;SDS011;10367;52.202;5.996;2023-07-31T03:47:48;26.73;;;22.13;;
20415;SDS011;10367;52.202;5.996;2023-07-31T03:50:16;25.90;;;21.60;;
20415;SDS011;10367;52.202;5.996;2023-07-31T03:52:45;36.87;;;22.73;;
20415;SDS011;10367;52.202;5.996;2023-07-31T03:55:15;27.17;;;21.87;;
20415;SDS011;10367;52.202;5.996;2023-07-31T03:57:45;32.90;;;23.87;;
20415;SDS011;10367;52.202;5.996;2023-07-31T04:00:13;30.60;;;23.60;;
20415;SDS011;10367;52.202;5.996;2023-07-31T04:02:42;29.40;;;22.27;;
20415;SDS011;10367;52.202;5.996;2023-07-31T04:05:11;30.07;;;22.80;;
20415;SDS011;10367;52.202;5.996;2023-07-31T04:07:40;23.87;;;20.87;;
20415;SDS011;10367;52.202;5.996;2023-07-31T04:10:13;34.73;;;22.83;;
20415;SDS011;10367;52.202;5.996;2023-07-31T04:12:42;40.00;;;24.30;;
20415;SDS011;10367;52.202;5.996;2023-07-31T04:15:13;37.13;;;24.13;;
20415;SDS011;10367;52.202;5.996;2023-07-31T04:17:42;36.63;;;23.67;;
20415;SDS011;10367;52.202;5.996;2023-07-31T04:20:11;29.20;;;21.67;;
20415;SDS011;10367;52.202;5.996;2023-07-31T04:22:40;28.03;;;21.07;;
20415;SDS011;10367;52.202;5.996;2023-07-31T04:25:09;27.47;;;21.40;;
20415;SDS011;10367;52.202;5.996;2023-07-31T04:27:39;27.03;;;22.33;;
20415;SDS011;10367;52.202;5.996;2023-07-31T04:30:08;30.17;;;22.20;;
20415;SDS011;10367;52.202;5.996;2023-07-31T04:32:37;25.73;;;21.30;;
20415;SDS011;10367;52.202;5.996;2023-07-31T04:35:06;30.37;;;22.93;;
20415;SDS011;10367;52.202;5.996;2023-07-31T04:37:38;27.70;;;22.53;;
20415;SDS011;10367;52.202;5.996;2023-07-31T04:40:07;30.70;;;23.50;;
20415;SDS011;10367;52.202;5.996;2023-07-31T04:42:38;28.93;;;22.80;;
20415;SDS011;10367;52.202;5.996;2023-07-31T04:45:08;29.17;;;22.37;;
20415;SDS011;10367;52.202;5.996;2023-07-31T04:47:37;31.03;;;21.90;;
20415;SDS011;10367;52.202;5.996;2023-07-31T04:50:06;27.40;;;20.83;;
20415;SDS011;10367;52.202;5.996;2023-07-31T04:52:36;27.77;;;21.13;;
20415;SDS011;10367;52.202;5.996;2023-07-31T04:55:04;33.47;;;21.27;;
20415;SDS011;10367;52.202;5.996;2023-07-31T04:57:35;28.93;;;22.07;;
20415;SDS011;10367;52.202;5.996;2023-07-31T05:00:06;28.10;;;21.27;;
20415;SDS011;10367;52.202;5.996;2023-07-31T05:02:36;23.37;;;20.93;;
20415;SDS011;10367;52.202;5.996;2023-07-31T05:05:05;36.03;;;21.87;;
20415;SDS011;10367;52.202;5.996;2023-07-31T05:07:34;28.53;;;21.27;;
20415;SDS011;10367;52.202;5.996;2023-07-31T05:10:04;27.70;;;20.60;;
20415;SDS011;10367;52.202;5.996;2023-07-31T05:12:33;28.97;;;22.90;;
20415;SDS011;10367;52.202;5.996;2023-07-31T05:15:02;24.83;;;20.40;;
20415;SDS011;10367;52.202;5.996;2023-07-31T05:17:33;28.90;;;21.53;;
20415;SDS011;10367;52.202;5.996;2023-07-31T05:20:01;30.67;;;22.37;;
20415;SDS011;10367;52.202;5.996;2023-07-31T05:22:30;31.27;;;21.37;;
20415;SDS011;10367;52.202;5.996;2023-07-31T05:24:59;29.87;;;23.30;;
20415;SDS011;10367;52.202;5.996;2023-07-31T05:27:28;22.90;;;20.37;;
20415;SDS011;10367;52.202;5.996;2023-07-31T05:29:57;33.53;;;23.40;;
20415;SDS011;10367;52.202;5.996;2023-07-31T05:32:26;32.30;;;21.67;;
20415;SDS011;10367;52.202;5.996;2023-07-31T05:34:56;24.53;;;21.30;;
20415;SDS011;10367;52.202;5.996;2023-07-31T05:37:25;25.00;;;21.53;;
20415;SDS011;10367;52.202;5.996;2023-07-31T05:39:54;22.97;;;20.13;;
20415;SDS011;10367;52.202;5.996;2023-07-31T05:42:24;30.23;;;21.40;;
20415;SDS011;10367;52.202;5.996;2023-07-31T05:44:53;33.70;;;22.83;;
20415;SDS011;10367;52.202;5.996;2023-07-31T05:47:22;32.80;;;21.17;;
20415;SDS011;10367;52.202;5.996;2023-07-31T05:49:51;27.07;;;20.33;;
20415;SDS011;10367;52.202;5.996;2023-07-31T05:52:21;24.53;;;20.37;;
20415;SDS011;10367;52.202;5.996;2023-07-31T05:54:50;28.70;;;23.97;;
20415;SDS011;10367;52.202;5.996;2023-07-31T05:57:19;21.23;;;19.07;;
20415;SDS011;10367;52.202;5.996;2023-07-31T05:59:48;29.63;;;22.83;;
20415;SDS011;10367;52.202;5.996;2023-07-31T06:02:17;23.23;;;20.97;;
20415;SDS011;10367;52.202;5.996;2023-07-31T06:04:46;24.33;;;21.87;;
20415;SDS011;10367;52.202;5.996;2023-07-31T06:07:16;26.40;;;20.70;;
20415;SDS011;10367;52.202;5.996;2023-07-31T06:09:47;25.73;;;21.57;;
20415;SDS011;10367;52.202;5.996;2023-07-31T06:12:16;27.60;;;20.13;;
20415;SDS011;10367;52.202;5.996;2023-07-31T06:14:45;26.13;;;21.63;;
20415;SDS011;10367;52.202;5.996;2023-07-31T06:17:14;21.00;;;19.23;;
20415;SDS011;10367;52.202;5.996;2023-07-31T06:19:43;24.43;;;22.03;;
20415;SDS011;10367;52.202;5.996;2023-07-31T06:22:12;23.90;;;21.27;;
20415;SDS011;10367;52.202;5.996;2023-07-31T06:24:40;23.47;;;19.50;;
20415;SDS011;10367;52.202;5.996;2023-07-31T06:27:10;25.27;;;20.37;;
20415;SDS011;10367;52.202;5.996;2023-07-31T06:29:39;25.70;;;20.30;;
20415;SDS011;10367;52.202;5.996;2023-07-31T06:32:09;21.37;;;19.40;;
20415;SDS011;10367;52.202;5.996;2023-07-31T06:34:37;20.33;;;18.87;;
20415;SDS011;10367;52.202;5.996;2023-07-31T06:37:06;23.90;;;19.03;;
20415;SDS011;10367;52.202;5.996;2023-07-31T06:39:35;22.10;;;20.07;;
20415;SDS011;10367;52.202;5.996;2023-07-31T06:42:04;23.00;;;20.83;;
20415;SDS011;10367;52.202;5.996;2023-07-31T06:44:35;20.80;;;18.83;;
20415;SDS011;10367;52.202;5.996;2023-07-31T06:47:04;22.10;;;20.03;;
20415;SDS011;10367;52.202;5.996;2023-07-31T06:49:33;21.10;;;19.37;;
20415;SDS011;10367;52.202;5.996;2023-07-31T06:52:02;22.47;;;20.50;;
20415;SDS011;10367;52.202;5.996;2023-07-31T06:54:37;21.47;;;19.63;;
20415;SDS011;10367;52.202;5.996;2023-07-31T06:57:06;22.97;;;20.97;;
20415;SDS011;10367;52.202;5.996;2023-07-31T06:59:36;21.73;;;19.70;;
20415;SDS011;10367;52.202;5.996;2023-07-31T07:02:05;22.90;;;20.90;;
20415;SDS011;10367;52.202;5.996;2023-07-31T07:04:37;22.30;;;20.27;;
20415;SDS011;10367;52.202;5.996;2023-07-31T07:07:06;22.67;;;20.57;;
20415;SDS011;10367;52.202;5.996;2023-07-31T07:09:34;21.17;;;19.47;;
20415;SDS011;10367;52.202;5.996;2023-07-31T07:12:09;20.20;;;18.67;;
20415;SDS011;10367;52.202;5.996;2023-07-31T07:14:39;22.30;;;20.27;;
20415;SDS011;10367;52.202;5.996;2023-07-31T07:17:10;20.87;;;19.07;;
20415;SDS011;10367;52.202;5.996;2023-07-31T07:19:39;21.07;;;19.07;;
20415;SDS011;10367;52.202;5.996;2023-07-31T07:22:11;20.70;;;18.83;;
20415;SDS011;10367;52.202;5.996;2023-07-31T07:24:40;19.50;;;18.10;;
20415;SDS011;10367;52.202;5.996;2023-07-31T07:27:12;19.87;;;18.53;;
20415;SDS011;10367;52.202;5.996;2023-07-31T07:29:43;20.47;;;18.90;;
20415;SDS011;10367;52.202;5.996;2023-07-31T07:32:12;19.83;;;18.53;;
20415;SDS011;10367;52.202;5.996;2023-07-31T07:34:40;21.77;;;20.13;;
20415;SDS011;10367;52.202;5.996;2023-07-31T07:37:09;22.80;;;20.83;;
20415;SDS011;10367;52.202;5.996;2023-07-31T07:39:38;21.17;;;19.60;;
20415;SDS011;10367;52.202;5.996;2023-07-31T07:42:06;22.50;;;20.53;;
20415;SDS011;10367;52.202;5.996;2023-07-31T07:44:35;20.57;;;19.13;;
20415;SDS011;10367;52.202;5.996;2023-07-31T07:47:05;22.57;;;20.53;;
20415;SDS011;10367;52.202;5.996;2023-07-31T07:49:34;22.03;;;20.10;;
20415;SDS011;10367;52.202;5.996;2023-07-31T07:52:03;21.63;;;19.83;;
20415;SDS011;10367;52.202;5.996;2023-07-31T07:54:32;21.40;;;19.80;;
20415;SDS011;10367;52.202;5.996;2023-07-31T07:57:01;23.93;;;21.80;;
20415;SDS011;10367;52.202;5.996;2023-07-31T07:59:30;24.50;;;22.30;;
20415;SDS011;10367;52.202;5.996;2023-07-31T08:01:59;22.50;;;20.57;;
20415;SDS011;10367;52.202;5.996;2023-07-31T08:04:29;22.30;;;20.40;;
20415;SDS011;10367;52.202;5.996;2023-07-31T08:06:58;20.93;;;19.43;;
20415;SDS011;10367;52.202;5.996;2023-07-31T08:09:27;19.37;;;18.10;;
20415;SDS011;10367;52.202;5.996;2023-07-31T08:11:56;24.03;;;21.90;;
20415;SDS011;10367;52.202;5.996;2023-07-31T08:14:28;19.63;;;18.43;;
20415;SDS011;10367;52.202;5.996;2023-07-31T08:16:59;22.23;;;20.50;;
20415;SDS011;10367;52.202;5.996;2023-07-31T08:19:30;20.83;;;19.43;;
20415;SDS011;10367;52.202;5.996;2023-07-31T08:21:59;22.63;;;20.83;;
20415;SDS011;10367;52.202;5.996;2023-07-31T08:24:27;20.27;;;18.93;;
20415;SDS011;10367;52.202;5.996;2023-07-31T08:26:56;22.00;;;20.33;;
20415;SDS011;10367;52.202;5.996;2023-07-31T08:29:25;19.90;;;18.70;;
20415;SDS011;10367;52.202;5.996;2023-07-31T08:31:53;21.70;;;20.03;;
20415;SDS011;10367;52.202;5.996;2023-07-31T08:34:22;20.60;;;19.20;;
20415;SDS011;10367;52.202;5.996;2023-07-31T08:36:53;19.70;;;18.30;;
20415;SDS011;10367;52.202;5.996;2023-07-31T08:39:21;20.43;;;19.10;;
20415;SDS011;10367;52.202;5.996;2023-07-31T08:41:50;20.40;;;19.00;;
20415;SDS011;10367;52.202;5.996;2023-07-31T08:44:19;20.83;;;19.47;;
20415;SDS011;10367;52.202;5.996;2023-07-31T08:46:48;21.83;;;20.23;;
20415;SDS011;10367;52.202;5.996;2023-07-31T08:49:17;20.70;;;19.40;;
20415;SDS011;10367;52.202;5.996;2023-07-31T08:51:47;21.07;;;19.67;;
20415;SDS011;10367;52.202;5.996;2023-07-31T08:54:19;22.40;;;20.70;;
20415;SDS011;10367;52.202;5.996;2023-07-31T08:56:48;19.77;;;18.47;;
20415;SDS011;10367;52.202;5.996;2023-07-31T08:59:18;20.77;;;19.37;;
20415;SDS011;10367;52.202;5.996;2023-07-31T09:01:50;20.67;;;18.90;;
20415;SDS011;10367;52.202;5.996;2023-07-31T09:04:21;20.80;;;19.40;;
20415;SDS011;10367;52.202;5.996;2023-07-31T09:06:51;19.23;;;18.00;;
20415;SDS011;10367;52.202;5.996;2023-07-31T09:09:29;20.77;;;19.33;;
20415;SDS011;10367;52.202;5.996;2023-07-31T09:11:58;24.07;;;22.07;;
20415;SDS011;10367;52.202;5.996;2023-07-31T09:14:27;21.07;;;19.67;;
20415;SDS011;10367;52.202;5.996;2023-07-31T09:16:56;22.23;;;20.43;;
20415;SDS011;10367;52.202;5.996;2023-07-31T09:19:27;19.50;;;18.23;;
20415;SDS011;10367;52.202;5.996;2023-07-31T09:22:01;20.80;;;19.27;;
20415;SDS011;10367;52.202;5.996;2023-07-31T09:24:31;19.30;;;18.07;;
20415;SDS011;10367;52.202;5.996;2023-07-31T09:27:01;23.57;;;21.50;;
20415;SDS011;10367;52.202;5.996;2023-07-31T09:29:34;20.37;;;18.97;;
20415;SDS011;10367;52.202;5.996;2023-07-31T09:32:03;24.20;;;22.03;;
20415;SDS011;10367;52.202;5.996;2023-07-31T09:34:37;21.17;;;19.73;;
20415;SDS011;10367;52.202;5.996;2023-07-31T09:37:06;21.37;;;19.77;;
20415;SDS011;10367;52.202;5.996;2023-07-31T09:39:46;20.77;;;19.47;;
20415;SDS011;10367;52.202;5.996;2023-07-31T09:42:24;19.10;;;17.90;;
20415;SDS011;10367;52.202;5.996;2023-07-31T09:45:06;23.67;;;21.77;;
20415;SDS011;10367;52.202;5.996;2023-07-31T09:47:36;20.93;;;19.53;;
20415;SDS011;10367;52.202;5.996;2023-07-31T09:50:07;25.20;;;22.90;;
20415;SDS011;10367;52.202;5.996;2023-07-31T09:52:38;23.57;;;21.63;;
20415;SDS011;10367;52.202;5.996;2023-07-31T09:55:09;21.07;;;19.37;;
20415;SDS011;10367;52.202;5.996;2023-07-31T09:57:39;22.13;;;20.43;;
20415;SDS011;10367;52.202;5.996;2023-07-31T10:00:13;23.73;;;21.73;;
20415;SDS011;10367;52.202;5.996;2023-07-31T10:02:44;22.47;;;20.83;;
20415;SDS011;10367;52.202;5.996;2023-07-31T10:05:14;21.33;;;19.83;;
20415;SDS011;10367;52.202;5.996;2023-07-31T10:07:45;20.33;;;18.93;;
20415;SDS011;10367;52.202;5.996;2023-07-31T10:10:23;21.43;;;20.00;;
20415;SDS011;10367;52.202;5.996;2023-07-31T10:12:53;24.50;;;22.43;;
20415;SDS011;10367;52.202;5.996;2023-07-31T10:15:22;20.80;;;19.40;;
20415;SDS011;10367;52.202;5.996;2023-07-31T10:17:52;23.47;;;21.63;;
20415;SDS011;10367;52.202;5.996;2023-07-31T10:20:27;21.83;;;20.43;;
20415;SDS011;10367;52.202;5.996;2023-07-31T10:25:49;22.80;;;21.00;;
20415;SDS011;10367;52.202;5.996;2023-07-31T10:28:20;21.60;;;20.10;;
20415;SDS011;10367;52.202;5.996;2023-07-31T10:30:52;22.60;;;20.97;;
20415;SDS011;10367;52.202;5.996;2023-07-31T10:33:22;22.83;;;21.23;;
20415;SDS011;10367;52.202;5.996;2023-07-31T10:38:40;22.77;;;21.07;;
20415;SDS011;10367;52.202;5.996;2023-07-31T10:41:11;25.37;;;23.17;;
20415;SDS011;10367;52.202;5.996;2023-07-31T10:43:40;24.17;;;22.30;;
20415;SDS011;10367;52.202;5.996;2023-07-31T10:46:09;25.13;;;23.03;;
20415;SDS011;10367;52.202;5.996;2023-07-31T10:48:42;23.70;;;21.93;;
20415;SDS011;10367;52.202;5.996;2023-07-31T10:51:11;25.83;;;23.27;;
20415;SDS011;10367;52.202;5.996;2023-07-31T10:53:47;24.00;;;22.10;;
20415;SDS011;10367;52.202;5.996;2023-07-31T10:56:19;26.10;;;23.80;;
20415;SDS011;10367;52.202;5.996;2023-07-31T10:58:51;24.00;;;22.00;;
20415;SDS011;10367;52.202;5.996;2023-07-31T11:04:23;23.47;;;21.57;;
20415;SDS011;10367;52.202;5.996;2023-07-31T11:06:57;25.57;;;23.17;;
20415;SDS011;10367;52.202;5.996;2023-07-31T11:09:29;24.67;;;22.70;;
20415;SDS011;10367;52.202;5.996;2023-07-31T11:12:01;27.73;;;25.03;;
20415;SDS011;10367;52.202;5.996;2023-07-31T11:14:31;23.27;;;21.50;;
20415;SDS011;10367;52.202;5.996;2023-07-31T11:17:05;27.67;;;25.00;;
20415;SDS011;10367;52.202;5.996;2023-07-31T11:19:34;24.07;;;22.27;;
20415;SDS011;10367;52.202;5.996;2023-07-31T11:22:06;27.33;;;24.80;;
20415;SDS011;10367;52.202;5.996;2023-07-31T11:24:36;25.03;;;23.13;;
20415;SDS011;10367;52.202;5.996;2023-07-31T11:27:07;27.47;;;24.93;;
20415;SDS011;10367;52.202;5.996;2023-07-31T11:29:36;24.43;;;22.53;;
20415;SDS011;10367;52.202;5.996;2023-07-31T11:32:05;24.67;;;22.63;;
20415;SDS011;10367;52.202;5.996;2023-07-31T11:34:51;24.40;;;22.60;;
20415;SDS011;10367;52.202;5.996;2023-07-31T11:37:20;24.23;;;22.33;;
20415;SDS011;10367;52.202;5.996;2023-07-31T11:39:59;23.23;;;21.63;;
20415;SDS011;10367;52.202;5.996;2023-07-31T11:42:29;23.40;;;21.90;;
20415;SDS011;10367;52.202;5.996;2023-07-31T11:44:58;24.77;;;22.87;;
20415;SDS011;10367;52.202;5.996;2023-07-31T11:47:29;25.00;;;23.03;;
20415;SDS011;10367;52.202;5.996;2023-07-31T11:50:02;25.23;;;23.23;;
20415;SDS011;10367;52.202;5.996;2023-07-31T11:52:34;24.43;;;22.60;;
20415;SDS011;10367;52.202;5.996;2023-07-31T11:55:06;26.93;;;24.83;;
20415;SDS011;10367;52.202;5.996;2023-07-31T11:57:39;22.60;;;21.10;;
20415;SDS011;10367;52.202;5.996;2023-07-31T12:00:10;24.60;;;22.70;;
20415;SDS011;10367;52.202;5.996;2023-07-31T12:02:41;22.03;;;20.63;;
20415;SDS011;10367;52.202;5.996;2023-07-31T12:05:11;24.93;;;22.97;;
20415;SDS011;10367;52.202;5.996;2023-07-31T12:07:46;20.60;;;19.30;;
20415;SDS011;10367;52.202;5.996;2023-07-31T12:10:25;21.80;;;20.40;;
20415;SDS011;10367;52.202;5.996;2023-07-31T12:12:57;24.10;;;22.40;;
20415;SDS011;10367;52.202;5.996;2023-07-31T12:15:34;24.60;;;22.63;;
20415;SDS011;10367;52.202;5.996;2023-07-31T12:18:05;26.10;;;23.73;;
20415;SDS011;10367;52.202;5.996;2023-07-31T12:20:39;23.07;;;21.50;;
20415;SDS011;10367;52.202;5.996;2023-07-31T12:23:15;23.77;;;22.07;;
20415;SDS011;10367;52.202;5.996;2023-07-31T12:25:45;21.60;;;20.13;;
20415;SDS011;10367;52.202;5.996;2023-07-31T12:28:15;22.70;;;21.07;;
20415;SDS011;10367;52.202;5.996;2023-07-31T12:30:43;21.80;;;20.30;;
20415;SDS011;10367;52.202;5.996;2023-07-31T12:33:15;23.30;;;21.63;;
20415;SDS011;10367;52.202;5.996;2023-07-31T12:35:47;23.20;;;21.60;;
20415;SDS011;10367;52.202;5.996;2023-07-31T12:38:16;23.20;;;21.27;;
20415;SDS011;10367;52.202;5.996;2023-07-31T12:40:45;24.53;;;22.70;;
20415;SDS011;10367;52.202;5.996;2023-07-31T12:43:15;23.97;;;22.20;;
20415;SDS011;10367;52.202;5.996;2023-07-31T12:45:44;23.63;;;21.80;;
20415;SDS011;10367;52.202;5.996;2023-07-31T12:48:14;22.93;;;21.40;;
20415;SDS011;10367;52.202;5.996;2023-07-31T12:50:43;23.00;;;21.20;;
20415;SDS011;10367;52.202;5.996;2023-07-31T12:53:11;24.17;;;22.43;;
20415;SDS011;10367;52.202;5.996;2023-07-31T12:55:40;25.67;;;23.60;;
20415;SDS011;10367;52.202;5.996;2023-07-31T12:58:09;25.87;;;23.77;;
20415;SDS011;10367;52.202;5.996;2023-07-31T13:00:39;24.77;;;22.97;;
20415;SDS011;10367;52.202;5.996;2023-07-31T13:03:08;24.63;;;22.73;;
20415;SDS011;10367;52.202;5.996;2023-07-31T13:05:37;25.37;;;23.40;;
20415;SDS011;10367;52.202;5.996;2023-07-31T13:08:06;25.47;;;23.60;;
20415;SDS011;10367;52.202;5.996;2023-07-31T13:10:35;23.23;;;21.57;;
20415;SDS011;10367;52.202;5.996;2023-07-31T13:13:04;25.47;;;23.47;;
20415;SDS011;10367;52.202;5.996;2023-07-31T13:15:33;24.13;;;22.57;;
20415;SDS011;10367;52.202;5.996;2023-07-31T13:18:03;24.17;;;22.57;;
20415;SDS011;10367;52.202;5.996;2023-07-31T13:20:32;24.77;;;22.97;;
20415;SDS011;10367;52.202;5.996;2023-07-31T13:23:09;25.63;;;23.70;;
20415;SDS011;10367;52.202;5.996;2023-07-31T13:25:38;22.97;;;21.47;;
20415;SDS011;10367;52.202;5.996;2023-07-31T13:28:06;23.33;;;21.73;;
20415;SDS011;10367;52.202;5.996;2023-07-31T13:30:35;24.70;;;23.00;;
20415;SDS011;10367;52.202;5.996;2023-07-31T13:33:04;26.53;;;24.40;;
20415;SDS011;10367;52.202;5.996;2023-07-31T13:35:43;23.70;;;22.10;;
20415;SDS011;10367;52.202;5.996;2023-07-31T13:38:13;25.33;;;23.30;;
20415;SDS011;10367;52.202;5.996;2023-07-31T13:40:42;23.63;;;21.83;;
20415;SDS011;10367;52.202;5.996;2023-07-31T13:43:11;24.60;;;22.80;;
20415;SDS011;10367;52.202;5.996;2023-07-31T13:45:40;26.07;;;24.07;;
20415;SDS011;10367;52.202;5.996;2023-07-31T13:48:08;27.13;;;24.93;;
20415;SDS011;10367;52.202;5.996;2023-07-31T13:50:37;23.60;;;21.90;;
20415;SDS011;10367;52.202;5.996;2023-07-31T13:53:06;27.10;;;24.80;;
20415;SDS011;10367;52.202;5.996;2023-07-31T13:55:36;26.47;;;24.40;;
20415;SDS011;10367;52.202;5.996;2023-07-31T13:58:05;28.00;;;25.40;;
20415;SDS011;10367;52.202;5.996;2023-07-31T14:00:34;25.60;;;23.63;;
20415;SDS011;10367;52.202;5.996;2023-07-31T14:03:03;28.90;;;26.07;;
20415;SDS011;10367;52.202;5.996;2023-07-31T14:05:31;23.90;;;22.20;;
20415;SDS011;10367;52.202;5.996;2023-07-31T14:08:00;26.17;;;24.03;;
20415;SDS011;10367;52.202;5.996;2023-07-31T14:10:29;24.43;;;22.63;;
20415;SDS011;10367;52.202;5.996;2023-07-31T14:12:59;27.40;;;24.77;;
20415;SDS011;10367;52.202;5.996;2023-07-31T14:15:28;23.73;;;22.03;;
20415;SDS011;10367;52.202;5.996;2023-07-31T14:17:56;25.50;;;23.43;;
20415;SDS011;10367;52.202;5.996;2023-07-31T14:20:28;23.30;;;21.60;;
20415;SDS011;10367;52.202;5.996;2023-07-31T14:22:57;25.80;;;23.43;;
20415;SDS011;10367;52.202;5.996;2023-07-31T14:25:26;24.93;;;22.77;;
20415;SDS011;10367;52.202;5.996;2023-07-31T14:27:55;24.53;;;22.40;;
20415;SDS011;10367;52.202;5.996;2023-07-31T14:30:26;24.47;;;22.57;;
20415;SDS011;10367;52.202;5.996;2023-07-31T14:32:54;24.93;;;22.97;;
20415;SDS011;10367;52.202;5.996;2023-07-31T14:35:23;24.30;;;22.40;;
20415;SDS011;10367;52.202;5.996;2023-07-31T14:37:52;24.40;;;22.53;;
20415;SDS011;10367;52.202;5.996;2023-07-31T14:40:21;26.33;;;24.07;;
20415;SDS011;10367;52.202;5.996;2023-07-31T14:42:50;24.27;;;22.40;;
20415;SDS011;10367;52.202;5.996;2023-07-31T14:45:19;26.03;;;23.83;;
20415;SDS011;10367;52.202;5.996;2023-07-31T14:47:49;24.67;;;22.73;;
20415;SDS011;10367;52.202;5.996;2023-07-31T14:50:19;24.63;;;22.43;;